kia-club.ru alexa rank chart, kia-club.ru alexa rank daily changes

kia-club.ru alexa rank chart, kia-club.ru alexa rank daily changes

kia-club.ru
Actual rank:
135 655

RANK HISTORY

Date Rank Diff
2017/11/19 135 655 +228
2017/11/18 135 427 +1 816
2017/11/17 133 611 +805
2017/11/16 132 806 +1 833
2017/11/15 130 973 +159
2017/11/14 130 814 +880
2017/11/13 129 934 +880
2017/11/12 129 054 +1 068
2017/11/11 127 986 +914
2017/11/10 127 072 +521
2017/11/09 126 551 +565
2017/11/08 125 986 -98
2017/11/07 126 084 +396
2017/11/06 125 688 -61
2017/11/05 125 749 -1 785
2017/11/04 127 534 +612
2017/11/03 126 922 -1 020
2017/11/02 127 942 -1 691
2017/11/01 129 633 +322
2017/10/31 129 311 +252
2017/10/30 129 059 +340
2017/10/29 128 719 +1 825
2017/10/28 126 894 +1 135
2017/10/27 125 759 +498
2017/10/26 125 261 +1 715
2017/10/25 123 546 +863
2017/10/24 122 683 -693
2017/10/23 123 376 +1 121
2017/10/22 122 255 -745
2017/10/21 123 000 -555
2017/10/20 123 555 -312
2017/10/19 123 867 -55
2017/10/18 123 922 -1 355
2017/10/17 125 277 +308
2017/10/16 124 969 -288
2017/10/14 125 257 -909
2017/10/13 126 166 +61
2017/10/12 126 105 +1 059
2017/10/11 125 046 +1 517
2017/10/10 123 529 -1 860
2017/10/09 125 389 -1 221
2017/10/08 126 610 +1 166
2017/10/07 125 444 +1 245
2017/10/06 124 199 +118
2017/10/05 124 081 +176
2017/10/04 123 905 -501
2017/10/03 124 406 -603
2017/10/02 125 009 +719
2017/10/01 124 290 -12
2017/09/30 124 302 +1 260
2017/09/29 123 042 +211
2017/09/28 122 831 -978
2017/09/27 123 809 +260
2017/09/26 123 549 -614
2017/09/25 124 163 +1 252
2017/09/24 122 911 +1 161
2017/09/23 121 750 +3 284
2017/09/22 118 466 +1 255
2017/09/20 117 211

WIDGET FOR YOUR SITE

DOMAINS WITH THE NEAREST RANK

Domain Rank
mapo.al 135 650
floydsbarbershop.com 135 651
boysnaweb.net 135 652
osloskolen.no 135 653
kazmkpu.kz 135 654
kia-club.ru 135 655
bspeedtest.jp 135 656
freedownloadscenter.com 135 657
napolshu.com 135 658
picpng.com 135 659
insert.com.pl 135 660

DOMAINS WITH THE NEAREST RANK BY TLD .ru

Domain Rank
hr-director.ru 135 574
irkobl.ru 135 585
pixelplus.ru 135 592
incred.ru 135 602
ndv.ru 135 642
kia-club.ru 135 655
pamyat-naroda.ru 135 674
gazprom-neft.ru 135 690
energovopros.ru 135 705
kinorole.ru 135 714
flstudiolive.ru 135 721